createdAt,value
2022-08-03T00:00:41.527Z,4.40
2022-08-03T00:03:10.544Z,4.20
2022-08-03T00:05:39.960Z,4.20
2022-08-03T00:08:09.160Z,4.40
2022-08-03T00:10:38.595Z,4.30
2022-08-03T00:13:07.280Z,4.30
2022-08-03T00:15:36.075Z,4.30
2022-08-03T00:18:05.065Z,4.20
2022-08-03T00:20:33.854Z,4.50
2022-08-03T00:23:02.711Z,3.90
2022-08-03T00:25:31.480Z,3.80
2022-08-03T00:28:00.329Z,3.80
2022-08-03T00:30:30.908Z,3.60
2022-08-03T00:33:00.166Z,3.90
2022-08-03T00:35:50.351Z,3.80
2022-08-03T00:38:20.311Z,3.60
2022-08-03T00:40:49.201Z,3.90
2022-08-03T00:43:19.030Z,3.80
2022-08-03T00:45:48.379Z,4.00
2022-08-03T00:48:33.109Z,4.10
2022-08-03T00:51:02.779Z,4.00
2022-08-03T00:53:31.954Z,4.00
2022-08-03T00:56:00.833Z,4.10
2022-08-03T00:58:29.720Z,4.00
2022-08-03T01:00:59.135Z,4.40
2022-08-03T01:03:27.970Z,3.70
2022-08-03T01:06:13.827Z,3.90
2022-08-03T01:09:35.739Z,3.40
2022-08-03T01:12:15.892Z,3.50
2022-08-03T01:15:29.297Z,3.60
2022-08-03T01:18:22.822Z,3.50
2022-08-03T01:20:56.922Z,3.20
2022-08-03T01:24:26.944Z,3.40
2022-08-03T01:27:10.160Z,3.50
2022-08-03T01:29:57.386Z,3.50
2022-08-03T01:33:00.249Z,3.50
2022-08-03T01:35:42.504Z,3.10
2022-08-03T01:38:16.209Z,3.50
2022-08-03T01:40:47.155Z,3.60
2022-08-03T01:44:26.443Z,3.60
2022-08-03T01:46:08.332Z,3.70
2022-08-03T01:48:39.609Z,3.70
2022-08-03T01:53:43.103Z,3.40
2022-08-03T01:56:13.216Z,3.70
2022-08-03T01:58:42.809Z,3.20
2022-08-03T02:01:13.915Z,3.40
2022-08-03T02:06:59.763Z,3.10
2022-08-03T02:09:23.816Z,3.50
2022-08-03T02:11:53.181Z,3.50
2022-08-03T02:14:23.048Z,3.80
2022-08-03T02:16:52.136Z,3.40
2022-08-03T02:19:20.888Z,3.10
2022-08-03T02:21:56.335Z,3.20
2022-08-03T02:24:31.444Z,3.40
2022-08-03T02:27:01.073Z,3.30
2022-08-03T02:29:40.352Z,3.30
2022-08-03T02:32:13.756Z,3.60
2022-08-03T02:34:45.585Z,3.40
2022-08-03T02:37:19.435Z,3.20
2022-08-03T02:39:49.882Z,3.60
2022-08-03T02:42:19.963Z,3.40
2022-08-03T02:44:51.863Z,3.50
2022-08-03T02:47:21.736Z,3.60
2022-08-03T02:49:52.268Z,3.30
2022-08-03T02:52:24.262Z,3.40
2022-08-03T02:54:57.329Z,3.40
2022-08-03T02:57:31.018Z,3.50
2022-08-03T03:00:00.577Z,3.60
2022-08-03T03:02:29.625Z,3.50
2022-08-03T03:05:53.533Z,3.80
2022-08-03T03:07:51.685Z,3.20
2022-08-03T03:10:26.451Z,3.40
2022-08-03T03:12:58.347Z,3.60
2022-08-03T03:15:28.915Z,3.80
2022-08-03T03:17:58.424Z,3.80
2022-08-03T03:20:29.320Z,3.30
2022-08-03T03:23:01.245Z,3.70
2022-08-03T03:25:33.968Z,3.70
2022-08-03T03:28:03.602Z,3.50
2022-08-03T03:30:35.349Z,3.30
2022-08-03T03:33:04.421Z,3.30
2022-08-03T03:35:39.040Z,3.40
2022-08-03T03:38:08.216Z,3.40
2022-08-03T03:40:38.488Z,3.80
2022-08-03T03:43:12.222Z,3.50
2022-08-03T03:45:44.207Z,3.20
2022-08-03T03:48:13.139Z,3.80
2022-08-03T03:50:42.065Z,3.60
2022-08-03T03:53:13.999Z,4.40
2022-08-03T03:55:58.975Z,3.40
2022-08-03T03:58:33.054Z,3.50
2022-08-03T04:01:02.022Z,3.80
2022-08-03T04:03:31.138Z,3.60
2022-08-03T04:06:18.609Z,3.50
2022-08-03T04:09:06.318Z,3.90
2022-08-03T04:11:48.378Z,4.10
2022-08-03T04:14:36.509Z,3.90
2022-08-03T04:17:10.133Z,3.60
2022-08-03T04:19:51.634Z,3.50
2022-08-03T04:22:26.114Z,3.20
2022-08-03T04:25:01.814Z,2.90
2022-08-03T04:27:36.971Z,2.60
2022-08-03T04:30:07.550Z,2.90
2022-08-03T04:32:37.810Z,2.90
2022-08-03T04:35:07.921Z,2.80
2022-08-03T04:37:46.263Z,2.80
2022-08-03T04:40:31.015Z,2.60
2022-08-03T04:43:00.188Z,3.20
2022-08-03T04:45:30.885Z,2.60
2022-08-03T04:48:00.160Z,2.80
2022-08-03T04:50:31.755Z,3.10
2022-08-03T04:53:07.292Z,3.00
2022-08-03T04:55:36.802Z,3.00
2022-08-03T04:58:06.523Z,3.10
2022-08-03T05:00:35.537Z,3.30
2022-08-03T05:03:04.263Z,3.10
2022-08-03T05:05:50.766Z,3.00
2022-08-03T05:08:27.761Z,3.50
2022-08-03T05:10:59.397Z,3.20
2022-08-03T05:13:28.487Z,2.60
2022-08-03T05:15:57.189Z,3.10
2022-08-03T05:18:25.961Z,2.60
2022-08-03T05:20:54.653Z,2.80
2022-08-03T05:23:23.388Z,2.60
2022-08-03T05:25:52.400Z,2.70
2022-08-03T05:28:22.658Z,2.80
2022-08-03T05:30:51.347Z,2.90
2022-08-03T05:33:20.342Z,3.10
2022-08-03T05:35:57.397Z,3.00
2022-08-03T05:38:34.932Z,2.50
2022-08-03T05:41:23.722Z,2.70
2022-08-03T05:43:55.291Z,2.90
2022-08-03T05:46:24.345Z,3.10
2022-08-03T05:48:53.310Z,2.80
2022-08-03T05:51:22.132Z,2.80
2022-08-03T05:53:50.941Z,3.20
2022-08-03T05:56:25.370Z,2.60
2022-08-03T05:58:54.336Z,2.60
2022-08-03T06:01:23.375Z,3.10
2022-08-03T06:03:52.453Z,2.90
2022-08-03T06:06:21.119Z,3.40
2022-08-03T06:08:50.019Z,3.10
2022-08-03T06:11:18.984Z,2.80
2022-08-03T06:13:47.909Z,2.80
2022-08-03T06:16:16.756Z,2.60
2022-08-03T06:18:46.277Z,2.60
2022-08-03T06:21:16.467Z,3.20
2022-08-03T06:23:55.037Z,2.90
2022-08-03T06:26:27.830Z,2.90
2022-08-03T06:28:56.812Z,2.90
2022-08-03T06:31:32.949Z,3.30
2022-08-03T06:34:33.715Z,3.00
2022-08-03T06:36:58.565Z,3.10
2022-08-03T06:39:30.764Z,2.80
2022-08-03T06:41:59.390Z,2.90
2022-08-03T06:44:28.175Z,2.90
2022-08-03T06:46:57.258Z,2.90
2022-08-03T06:49:26.733Z,2.80
2022-08-03T06:52:04.327Z,3.10
2022-08-03T06:54:36.103Z,3.20
2022-08-03T06:57:07.083Z,2.80
2022-08-03T07:00:09.608Z,3.30
2022-08-03T07:02:24.960Z,4.40
2022-08-03T07:04:57.810Z,2.90
2022-08-03T07:07:26.623Z,3.00
2022-08-03T07:09:57.790Z,2.70
2022-08-03T07:12:29.267Z,3.60
2022-08-03T07:17:33.664Z,2.90
2022-08-03T07:20:06.805Z,2.80
2022-08-03T07:22:36.021Z,2.90
2022-08-03T07:25:05.439Z,3.30
2022-08-03T07:27:34.745Z,3.20
2022-08-03T07:30:07.059Z,2.70
2022-08-03T07:32:37.643Z,3.20
2022-08-03T07:35:24.616Z,3.30
2022-08-03T07:37:55.214Z,2.90
2022-08-03T07:40:26.980Z,2.80
2022-08-03T07:43:02.510Z,2.70
2022-08-03T07:45:34.566Z,2.90
2022-08-03T07:48:05.518Z,2.90
2022-08-03T07:50:37.751Z,2.90
2022-08-03T07:53:06.904Z,2.80
2022-08-03T07:55:35.991Z,2.80
2022-08-03T07:58:10.131Z,2.60
2022-08-03T08:00:39.356Z,2.20
2022-08-03T08:03:09.015Z,2.30
2022-08-03T08:05:38.005Z,2.20
2022-08-03T08:08:07.413Z,2.00
2022-08-03T08:10:36.346Z,2.20
2022-08-03T08:13:09.387Z,2.00
2022-08-03T08:15:42.778Z,2.20
2022-08-03T08:18:13.663Z,2.10
2022-08-03T08:20:42.799Z,2.40
2022-08-03T08:23:42.670Z,2.40
2022-08-03T08:26:01.895Z,2.50
2022-08-03T08:28:33.688Z,2.50
2022-08-03T08:31:03.117Z,2.70
2022-08-03T08:33:54.247Z,2.70
2022-08-03T08:36:21.685Z,2.50
2022-08-03T08:38:52.636Z,2.80
2022-08-03T08:41:21.853Z,2.50
2022-08-03T08:43:51.687Z,2.40
2022-08-03T08:46:23.477Z,2.50
2022-08-03T08:48:54.814Z,2.40
2022-08-03T08:51:50.981Z,2.20
2022-08-03T08:54:22.016Z,2.90
2022-08-03T08:56:54.149Z,2.40
2022-08-03T08:59:23.681Z,2.10
2022-08-03T09:01:59.210Z,2.20
2022-08-03T09:04:31.495Z,2.30
2022-08-03T09:07:19.148Z,2.30
2022-08-03T09:10:10.948Z,2.80
2022-08-03T09:12:44.968Z,1.80
2022-08-03T09:15:31.443Z,1.90
2022-08-03T09:18:03.355Z,1.90
2022-08-03T09:20:37.099Z,2.00
2022-08-03T09:23:59.747Z,2.50
2022-08-03T09:26:02.490Z,1.80
2022-08-03T09:28:59.824Z,1.90
2022-08-03T09:31:38.837Z,2.20
2022-08-03T09:34:19.588Z,2.10
2022-08-03T09:36:55.887Z,2.30
2022-08-03T09:39:41.421Z,2.00
2022-08-03T09:42:23.764Z,2.20
2022-08-03T09:44:53.317Z,2.60
2022-08-03T09:47:34.008Z,2.20
2022-08-03T09:52:49.999Z,2.10
2022-08-03T09:56:32.891Z,2.30
2022-08-03T09:58:14.530Z,3.10
2022-08-03T10:01:05.464Z,2.70
2022-08-03T10:04:02.774Z,3.20
2022-08-03T10:06:29.145Z,2.30
2022-08-03T10:09:17.380Z,2.30
2022-08-03T10:11:47.144Z,2.40
2022-08-03T10:14:23.186Z,2.40
2022-08-03T10:16:51.913Z,2.90
2022-08-03T10:19:21.110Z,2.90
2022-08-03T10:21:57.727Z,2.10
2022-08-03T10:24:30.705Z,4.50
2022-08-03T10:27:07.361Z,2.60
2022-08-03T10:29:45.189Z,2.40
2022-08-03T10:32:22.940Z,2.30
2022-08-03T10:35:00.183Z,2.40
2022-08-03T10:37:31.335Z,2.90
2022-08-03T10:40:01.445Z,2.70
2022-08-03T10:42:35.001Z,2.40
2022-08-03T10:45:08.867Z,2.90
2022-08-03T10:47:38.047Z,2.30
2022-08-03T10:50:08.094Z,2.50
2022-08-03T10:52:45.381Z,2.40
2022-08-03T10:55:57.655Z,2.40
2022-08-03T10:58:37.808Z,2.40
2022-08-03T11:02:00.395Z,2.50
2022-08-03T11:04:32.972Z,2.40
2022-08-03T11:07:19.656Z,2.50
2022-08-03T11:09:58.527Z,2.80
2022-08-03T11:12:31.094Z,2.50
2022-08-03T11:15:07.568Z,2.80
2022-08-03T11:17:46.548Z,2.50
2022-08-03T11:21:02.520Z,2.80
2022-08-03T11:24:04.442Z,2.70
2022-08-03T11:26:35.507Z,2.90
2022-08-03T11:29:31.016Z,2.60
2022-08-03T11:32:00.004Z,2.70
2022-08-03T11:34:28.814Z,2.40
2022-08-03T11:37:27.477Z,2.60
2022-08-03T11:39:59.112Z,2.60
2022-08-03T11:42:29.424Z,3.40
2022-08-03T11:45:00.500Z,2.50
2022-08-03T11:47:30.289Z,3.10
2022-08-03T11:50:02.414Z,2.60
2022-08-03T11:52:40.583Z,2.60
2022-08-03T11:55:12.231Z,2.90
2022-08-03T11:59:00.985Z,2.50
2022-08-03T12:00:33.666Z,2.60
2022-08-03T12:03:12.520Z,2.80
2022-08-03T12:05:51.272Z,2.60
2022-08-03T12:08:27.385Z,2.60
2022-08-03T12:11:00.066Z,2.50
2022-08-03T12:14:48.375Z,2.80
2022-08-03T12:16:49.935Z,3.20
2022-08-03T12:19:19.135Z,2.60
2022-08-03T12:21:57.190Z,2.60
2022-08-03T12:24:29.873Z,2.50
2022-08-03T12:26:59.991Z,2.80
2022-08-03T12:29:29.324Z,2.90
2022-08-03T12:31:58.216Z,3.00
2022-08-03T12:34:49.483Z,2.90
2022-08-03T12:37:23.689Z,2.90
2022-08-03T12:40:02.724Z,2.90
2022-08-03T12:42:37.647Z,2.90
2022-08-03T12:45:28.769Z,2.80
2022-08-03T12:48:00.685Z,2.30
2022-08-03T12:50:38.173Z,2.80
2022-08-03T12:53:09.823Z,2.80
2022-08-03T12:55:57.856Z,2.80
2022-08-03T12:58:36.207Z,2.30
2022-08-03T13:01:09.772Z,2.30
2022-08-03T13:03:52.968Z,2.70
2022-08-03T13:06:26.763Z,2.90
2022-08-03T13:09:08.647Z,2.80
2022-08-03T13:11:55.644Z,2.90
2022-08-03T13:14:26.506Z,3.10
2022-08-03T13:16:55.442Z,2.60
2022-08-03T13:19:24.388Z,2.70
2022-08-03T13:22:04.191Z,2.90
2022-08-03T13:24:33.949Z,2.70
2022-08-03T13:28:01.232Z,2.50
2022-08-03T13:29:55.393Z,2.80
2022-08-03T13:32:24.539Z,3.00
2022-08-03T13:34:53.414Z,2.90
2022-08-03T13:37:22.501Z,2.50
2022-08-03T13:39:59.482Z,2.80
2022-08-03T13:42:32.479Z,2.80
2022-08-03T13:45:02.105Z,2.70
2022-08-03T13:47:31.090Z,2.80
2022-08-03T13:50:02.780Z,2.80
2022-08-03T13:52:35.138Z,2.20
2022-08-03T13:55:08.632Z,2.40
2022-08-03T13:58:02.350Z,2.50
2022-08-03T14:00:29.432Z,2.70
2022-08-03T14:03:12.852Z,2.10
2022-08-03T14:05:44.642Z,2.10
2022-08-03T14:08:13.855Z,2.80
2022-08-03T14:10:45.371Z,2.40
2022-08-03T14:13:17.536Z,2.00
2022-08-03T14:15:49.842Z,2.40
2022-08-03T14:18:28.270Z,2.20
2022-08-03T14:21:05.002Z,2.30
2022-08-03T14:23:38.150Z,2.50
2022-08-03T14:26:07.777Z,2.40
2022-08-03T14:28:36.809Z,1.80
2022-08-03T14:31:08.332Z,2.00
2022-08-03T14:33:44.484Z,2.40
2022-08-03T14:36:13.459Z,2.40
2022-08-03T14:38:42.246Z,2.10
2022-08-03T14:41:12.052Z,1.90
2022-08-03T14:44:02.212Z,2.10
2022-08-03T14:46:32.684Z,2.00
2022-08-03T14:50:30.698Z,1.90
2022-08-03T14:51:54.000Z,2.00
2022-08-03T14:54:23.763Z,2.00
2022-08-03T14:56:52.733Z,2.00
2022-08-03T14:59:21.487Z,1.70
2022-08-03T15:02:04.342Z,2.60
2022-08-03T15:04:36.731Z,2.20
2022-08-03T15:07:05.719Z,2.10
2022-08-03T15:09:34.702Z,2.00
2022-08-03T15:12:04.283Z,1.70
2022-08-03T15:14:34.852Z,2.10
2022-08-03T15:17:05.204Z,1.90
2022-08-03T15:20:02.752Z,2.30
2022-08-03T15:22:24.876Z,2.30
2022-08-03T15:24:56.522Z,2.30
2022-08-03T15:27:25.510Z,1.90
2022-08-03T15:30:07.212Z,3.80
2022-08-03T15:32:39.290Z,2.00
2022-08-03T15:35:08.384Z,1.70
2022-08-03T15:37:37.165Z,2.00
2022-08-03T15:40:06.720Z,1.70
2022-08-03T15:42:35.534Z,1.90
2022-08-03T15:45:04.824Z,1.80
2022-08-03T15:47:33.723Z,2.00
2022-08-03T15:50:06.534Z,2.00
2022-08-03T15:52:38.567Z,2.10
2022-08-03T15:55:08.153Z,1.90
2022-08-03T15:59:10.429Z,2.00
2022-08-03T16:00:33.322Z,2.20
2022-08-03T16:03:03.148Z,2.30
2022-08-03T16:05:32.461Z,2.20
2022-08-03T16:08:03.431Z,2.00
2022-08-03T16:10:33.668Z,2.00
2022-08-03T16:13:02.509Z,1.70
2022-08-03T16:15:31.437Z,2.00
2022-08-03T16:18:00.246Z,1.80
2022-08-03T16:20:34.033Z,2.20
2022-08-03T16:23:10.925Z,2.00
2022-08-03T16:25:42.745Z,1.80
2022-08-03T16:28:14.663Z,1.90
2022-08-03T16:30:45.544Z,2.20
2022-08-03T16:33:17.348Z,2.10
2022-08-03T16:35:49.780Z,1.90
2022-08-03T16:38:19.537Z,2.00
2022-08-03T16:40:52.295Z,2.80
2022-08-03T16:43:25.140Z,2.30
2022-08-03T16:45:53.840Z,2.30
2022-08-03T16:48:22.599Z,2.20
2022-08-03T16:50:51.547Z,2.70
2022-08-03T16:53:33.763Z,2.20
2022-08-03T16:56:10.805Z,1.90
2022-08-03T16:58:42.442Z,2.00
2022-08-03T17:01:22.230Z,6.10
2022-08-03T17:04:01.680Z,3.60
2022-08-03T17:06:37.254Z,1.80
2022-08-03T17:09:15.626Z,1.90
2022-08-03T17:11:49.920Z,1.90
2022-08-03T17:14:28.315Z,1.60
2022-08-03T17:17:03.708Z,1.90
2022-08-03T17:19:35.193Z,2.70
2022-08-03T17:22:20.220Z,3.00
2022-08-03T17:24:54.135Z,1.90
2022-08-03T17:28:48.217Z,2.20
2022-08-03T17:30:20.670Z,2.10
2022-08-03T17:32:56.816Z,3.00
2022-08-03T17:35:36.450Z,2.40
2022-08-03T17:38:10.432Z,3.10
2022-08-03T17:40:48.053Z,2.40
2022-08-03T17:44:13.453Z,2.70
2022-08-03T17:46:10.770Z,3.20
2022-08-03T17:48:42.169Z,2.60
2022-08-03T17:51:24.260Z,2.70
2022-08-03T17:54:18.802Z,2.60
2022-08-03T17:57:22.477Z,2.50
2022-08-03T18:00:29.512Z,2.20
2022-08-03T18:03:20.778Z,2.40
2022-08-03T18:06:11.106Z,2.40
2022-08-03T18:08:51.800Z,2.70
2022-08-03T18:11:35.782Z,2.90
2022-08-03T18:14:19.905Z,3.60
2022-08-03T18:16:58.318Z,2.90
2022-08-03T18:20:02.659Z,3.30
2022-08-03T18:22:21.736Z,3.20
2022-08-03T18:24:56.225Z,3.40
2022-08-03T18:27:25.246Z,3.10
2022-08-03T18:30:15.511Z,3.40
2022-08-03T18:33:00.829Z,3.20
2022-08-03T18:35:52.955Z,3.50
2022-08-03T18:38:19.763Z,3.20
2022-08-03T18:40:52.887Z,3.30
2022-08-03T18:43:22.691Z,3.30
2022-08-03T18:46:42.842Z,3.40
2022-08-03T18:49:29.117Z,3.30
2022-08-03T18:52:17.970Z,3.50
2022-08-03T18:55:20.002Z,3.40
2022-08-03T18:58:02.313Z,4.00
2022-08-03T19:00:53.873Z,3.40
2022-08-03T19:03:41.543Z,3.00
2022-08-03T19:06:20.372Z,3.30
2022-08-03T19:09:24.672Z,3.40
2022-08-03T19:12:11.039Z,3.50
2022-08-03T19:14:53.833Z,3.60
2022-08-03T19:17:23.296Z,3.40
2022-08-03T19:19:58.902Z,3.30
2022-08-03T19:22:32.372Z,3.50
2022-08-03T19:25:02.836Z,3.30
2022-08-03T19:27:32.452Z,3.00
2022-08-03T19:30:14.106Z,3.20
2022-08-03T19:32:51.890Z,2.90
2022-08-03T19:35:51.410Z,2.80
2022-08-03T19:38:10.261Z,3.20
2022-08-03T19:43:33.001Z,2.70
2022-08-03T19:46:11.715Z,3.80
2022-08-03T19:48:54.420Z,3.80
2022-08-03T19:51:58.472Z,2.70
2022-08-03T19:54:16.506Z,3.10
2022-08-03T19:56:48.361Z,3.00
2022-08-03T19:59:20.110Z,2.80
2022-08-03T20:01:50.255Z,2.70
2022-08-03T20:04:38.995Z,2.60
2022-08-03T20:07:08.057Z,2.70
2022-08-03T20:09:38.806Z,2.30
2022-08-03T20:12:13.774Z,2.30
2022-08-03T20:14:46.372Z,2.30
2022-08-03T20:17:21.048Z,2.30
2022-08-03T20:19:53.403Z,2.60
2022-08-03T20:22:28.657Z,2.60
2022-08-03T20:24:59.879Z,2.70
2022-08-03T20:27:31.663Z,2.60
2022-08-03T20:30:26.381Z,2.60
2022-08-03T20:32:56.497Z,2.80
2022-08-03T20:35:25.414Z,2.70
2022-08-03T20:37:56.654Z,3.00
2022-08-03T20:40:28.121Z,3.00
2022-08-03T20:42:58.117Z,3.10
2022-08-03T20:45:58.230Z,4.00
2022-08-03T20:48:18.301Z,3.30
2022-08-03T20:50:51.643Z,2.90
2022-08-03T20:53:57.491Z,3.10
2022-08-03T20:56:10.173Z,3.60
2022-08-03T20:58:41.598Z,3.30
2022-08-03T21:01:10.652Z,3.20
2022-08-03T21:03:40.798Z,3.10
2022-08-03T21:06:27.363Z,3.00
2022-08-03T21:09:05.508Z,3.10
2022-08-03T21:11:41.800Z,3.40
2022-08-03T21:14:19.800Z,4.30
2022-08-03T21:16:51.796Z,4.30
2022-08-03T21:19:23.156Z,5.60
2022-08-03T21:21:52.563Z,6.20
2022-08-03T21:24:24.394Z,5.70
2022-08-03T21:26:55.340Z,5.50
2022-08-03T21:31:53.333Z,4.00
2022-08-03T21:34:22.182Z,3.90
2022-08-03T21:36:50.968Z,4.00
2022-08-03T21:39:19.885Z,3.40
2022-08-03T21:41:48.788Z,3.00
2022-08-03T21:44:28.722Z,3.50
2022-08-03T21:46:58.921Z,3.30
2022-08-03T21:50:04.389Z,3.40
2022-08-03T21:52:20.110Z,3.30
2022-08-03T21:54:51.056Z,3.50
2022-08-03T21:57:24.364Z,3.50
2022-08-03T22:00:11.389Z,3.60
2022-08-03T22:02:54.498Z,3.40
2022-08-03T22:05:42.713Z,3.30
2022-08-03T22:08:16.164Z,3.00
2022-08-03T22:10:45.582Z,4.00
2022-08-03T22:13:18.497Z,4.00
2022-08-03T22:15:49.501Z,4.00
2022-08-03T22:18:18.342Z,3.30
2022-08-03T22:20:51.992Z,3.50
2022-08-03T22:23:23.373Z,3.60
2022-08-03T22:25:53.925Z,3.50
2022-08-03T22:28:23.711Z,3.30
2022-08-03T22:30:52.577Z,3.60
2022-08-03T22:33:21.716Z,3.40
2022-08-03T22:35:52.221Z,3.40
2022-08-03T22:38:21.034Z,3.00
2022-08-03T22:40:52.759Z,3.00
2022-08-03T22:43:27.019Z,3.10
2022-08-03T22:46:09.921Z,3.40
2022-08-03T22:48:41.839Z,3.00
2022-08-03T22:51:10.799Z,2.70
2022-08-03T22:53:40.768Z,3.00
2022-08-03T22:56:09.628Z,3.10
2022-08-03T22:58:38.312Z,3.20
2022-08-03T23:01:10.252Z,3.10
2022-08-03T23:03:59.080Z,3.20
2022-08-03T23:06:41.444Z,3.20
2022-08-03T23:09:14.088Z,2.90
2022-08-03T23:11:46.092Z,3.20
2022-08-03T23:14:18.734Z,3.20
2022-08-03T23:16:48.070Z,3.30
2022-08-03T23:19:25.514Z,3.30
2022-08-03T23:22:02.226Z,3.00
2022-08-03T23:24:36.931Z,3.00
2022-08-03T23:27:08.903Z,3.20
2022-08-03T23:29:40.148Z,3.20
2022-08-03T23:32:10.764Z,3.40
2022-08-03T23:34:58.730Z,3.70
2022-08-03T23:37:27.882Z,3.50
2022-08-03T23:39:57.641Z,3.30
2022-08-03T23:42:26.665Z,3.40
2022-08-03T23:44:59.552Z,3.50
2022-08-03T23:47:47.270Z,3.10
2022-08-03T23:50:17.464Z,3.60
2022-08-03T23:53:22.965Z,3.50
2022-08-03T23:56:20.760Z,3.20
2022-08-03T23:59:30.820Z,3.20
